createdAt,value
2023-05-02T00:00:17.848Z,98902.09
2023-05-02T00:02:48.923Z,98897.63
2023-05-02T00:05:19.949Z,98904.61
2023-05-02T00:07:50.677Z,98903.06
2023-05-02T00:10:21.738Z,98900.42
2023-05-02T00:12:52.481Z,98900.09
2023-05-02T00:15:23.181Z,98897.14
2023-05-02T00:17:54.189Z,98899.23
2023-05-02T00:20:25.335Z,98897.35
2023-05-02T00:22:56.533Z,98898.92
2023-05-02T00:25:27.286Z,98895.14
2023-05-02T00:27:58.449Z,98897.23
2023-05-02T00:30:29.106Z,98898.92
2023-05-02T00:32:59.901Z,98903.83
2023-05-02T00:35:30.623Z,98900.86
2023-05-02T00:38:02.222Z,98906.29
2023-05-02T00:40:32.949Z,98906.18
2023-05-02T00:43:03.641Z,98904.42
2023-05-02T00:45:34.630Z,98906.38
2023-05-02T00:48:06.361Z,98907.30
2023-05-02T00:50:39.038Z,98913.73
2023-05-02T00:53:10.650Z,98912.41
2023-05-02T00:55:41.653Z,98914.65
2023-05-02T00:58:16.584Z,98913.17
2023-05-02T01:01:01.655Z,98913.00
2023-05-02T01:03:42.268Z,98913.27
2023-05-02T01:06:30.014Z,98915.20
2023-05-02T01:09:11.193Z,98917.58
2023-05-02T01:11:51.387Z,98919.60
2023-05-02T01:14:23.347Z,98921.20
2023-05-02T01:16:58.161Z,98923.87
2023-05-02T01:19:36.589Z,98926.22
2023-05-02T01:22:11.198Z,98932.48
2023-05-02T01:24:50.157Z,98929.70
2023-05-02T01:27:32.451Z,98928.90
2023-05-02T01:30:04.362Z,98930.27
2023-05-02T01:32:38.496Z,98934.20
2023-05-02T01:35:10.395Z,98933.61
2023-05-02T01:37:42.324Z,98934.45
2023-05-02T01:40:16.735Z,98937.13
2023-05-02T01:42:49.560Z,98937.30
2023-05-02T01:45:22.429Z,98944.33
2023-05-02T01:47:54.207Z,98944.65
2023-05-02T01:50:27.762Z,98942.34
2023-05-02T01:53:01.292Z,98945.86
2023-05-02T01:55:32.790Z,98941.65
2023-05-02T01:58:04.762Z,98941.05
2023-05-02T02:00:38.841Z,98945.05
2023-05-02T02:03:11.795Z,98947.00
2023-05-02T02:05:43.725Z,98948.46
2023-05-02T02:08:14.766Z,98954.47
2023-05-02T02:10:49.400Z,98953.13
2023-05-02T02:13:26.975Z,98957.33
2023-05-02T02:16:04.375Z,98957.43
2023-05-02T02:18:40.144Z,98955.83
2023-05-02T02:21:13.450Z,98955.39
2023-05-02T02:23:48.822Z,98958.56
2023-05-02T02:26:22.381Z,98959.42
2023-05-02T02:28:53.521Z,98958.03
2023-05-02T02:31:25.915Z,98960.28
2023-05-02T02:33:56.727Z,98963.95
2023-05-02T02:36:34.449Z,98962.29
2023-05-02T02:39:19.280Z,98966.76
2023-05-02T02:42:03.790Z,98969.11
2023-05-02T02:44:45.108Z,98971.92
2023-05-02T02:47:24.256Z,98973.23
2023-05-02T02:50:10.871Z,98975.36
2023-05-02T02:52:53.479Z,98980.51
2023-05-02T02:55:32.226Z,98982.29
2023-05-02T02:58:10.133Z,98982.59
2023-05-02T03:00:41.830Z,98979.34
2023-05-02T03:03:15.550Z,98980.42
2023-05-02T03:05:47.322Z,98980.98
2023-05-02T03:08:18.164Z,98982.02
2023-05-02T03:10:49.196Z,98985.13
2023-05-02T03:13:20.124Z,98986.10
2023-05-02T03:16:30.053Z,98995.54
2023-05-02T03:19:01.202Z,98999.60
2023-05-02T03:21:32.650Z,99007.27
2023-05-02T03:24:05.268Z,99009.17
2023-05-02T03:26:36.398Z,99017.14
2023-05-02T03:29:07.241Z,99014.84
2023-05-02T03:31:38.033Z,99019.57
2023-05-02T03:34:08.999Z,99021.02
2023-05-02T03:36:39.771Z,99029.73
2023-05-02T03:39:11.229Z,99032.04
2023-05-02T03:41:43.082Z,99028.10
2023-05-02T03:44:13.829Z,99027.46
2023-05-02T03:46:44.830Z,99025.23
2023-05-02T03:49:15.708Z,99032.81
2023-05-02T03:51:46.448Z,99036.01
2023-05-02T03:54:18.089Z,99037.02
2023-05-02T03:56:48.784Z,99039.88
2023-05-02T03:59:19.691Z,99042.58
2023-05-02T04:01:53.190Z,99044.42
2023-05-02T04:04:24.202Z,99051.23
2023-05-02T04:06:55.203Z,99054.64
2023-05-02T04:09:26.218Z,99056.90
2023-05-02T04:11:57.262Z,99064.02
2023-05-02T04:14:28.418Z,99062.73
2023-05-02T04:16:59.184Z,99067.35
2023-05-02T04:19:30.049Z,99070.33
2023-05-02T04:22:01.243Z,99069.68
2023-05-02T04:24:32.102Z,99077.01
2023-05-02T04:27:03.129Z,99079.23
2023-05-02T04:29:33.864Z,99084.00
2023-05-02T04:32:04.880Z,99088.67
2023-05-02T04:34:35.854Z,99085.73
2023-05-02T04:37:07.509Z,99084.04
2023-05-02T04:39:38.502Z,99091.47
2023-05-02T04:42:09.340Z,99093.11
2023-05-02T04:44:40.084Z,99096.23
2023-05-02T04:47:10.921Z,99103.05
2023-05-02T04:49:43.075Z,99105.83
2023-05-02T04:52:13.777Z,99110.00
2023-05-02T04:54:44.567Z,99111.41
2023-05-02T04:57:15.873Z,99115.77
2023-05-02T04:59:46.550Z,99118.85
2023-05-02T05:02:17.852Z,99122.85
2023-05-02T05:04:49.313Z,99122.78
2023-05-02T05:07:20.695Z,99127.63
2023-05-02T05:09:53.275Z,99132.20
2023-05-02T05:12:24.456Z,99133.79
2023-05-02T05:14:55.334Z,99136.08
2023-05-02T05:17:26.180Z,99139.88
2023-05-02T05:19:57.406Z,99144.84
2023-05-02T05:22:28.537Z,99150.15
2023-05-02T05:24:59.395Z,99153.36
2023-05-02T05:27:30.152Z,99160.16
2023-05-02T05:30:01.634Z,99160.77
2023-05-02T05:32:34.052Z,99156.42
2023-05-02T05:35:05.812Z,99160.77
2023-05-02T05:37:37.494Z,99164.61
2023-05-02T05:40:10.406Z,99162.14
2023-05-02T05:42:41.076Z,99158.88
2023-05-02T05:45:13.596Z,99159.66
2023-05-02T05:47:44.344Z,99160.84
2023-05-02T05:50:15.317Z,99166.68
2023-05-02T05:52:45.959Z,99170.52
2023-05-02T05:55:16.954Z,99174.93
2023-05-02T05:57:47.812Z,99177.01
2023-05-02T06:00:20.050Z,99182.56
2023-05-02T06:02:50.956Z,99183.02
2023-05-02T06:05:21.896Z,99182.10
2023-05-02T06:07:52.518Z,99187.50
2023-05-02T06:10:23.449Z,99190.25
2023-05-02T06:12:54.406Z,99189.88
2023-05-02T06:15:25.094Z,99192.76
2023-05-02T06:17:56.490Z,99195.58
2023-05-02T06:20:27.472Z,99197.39
2023-05-02T06:22:58.466Z,99198.98
2023-05-02T06:25:29.258Z,99199.55
2023-05-02T06:27:59.946Z,99209.11
2023-05-02T06:30:30.786Z,99213.55
2023-05-02T06:33:01.663Z,99212.02
2023-05-02T06:35:32.700Z,99218.95
2023-05-02T06:38:03.405Z,99218.05
2023-05-02T06:40:36.562Z,99221.90
2023-05-02T06:43:07.447Z,99225.44
2023-05-02T06:45:38.276Z,99226.13
2023-05-02T06:48:09.680Z,99224.70
2023-05-02T06:50:40.818Z,99230.83
2023-05-02T06:53:11.509Z,99230.32
2023-05-02T06:55:42.319Z,99231.09
2023-05-02T06:58:13.316Z,99233.45
2023-05-02T07:00:44.206Z,99235.77
2023-05-02T07:03:15.432Z,99242.00
2023-05-02T07:05:46.265Z,99244.67
2023-05-02T07:08:17.115Z,99247.52
2023-05-02T07:10:48.022Z,99249.48
2023-05-02T07:13:19.022Z,99249.31
2023-05-02T07:15:49.847Z,99254.89
2023-05-02T07:18:21.292Z,99260.60
2023-05-02T07:20:52.724Z,99262.47
2023-05-02T07:23:23.458Z,99262.71
2023-05-02T07:25:54.489Z,99265.77
2023-05-02T07:28:25.151Z,99272.13
2023-05-02T07:30:56.900Z,99274.61
2023-05-02T07:33:27.834Z,99278.80
2023-05-02T07:35:59.105Z,99277.50
2023-05-02T07:38:30.435Z,99280.44
2023-05-02T07:41:02.780Z,99281.42
2023-05-02T07:43:34.052Z,99292.73
2023-05-02T07:46:08.738Z,99294.73
2023-05-02T07:48:39.842Z,99298.63
2023-05-02T07:51:12.415Z,99302.97
2023-05-02T07:53:43.052Z,99307.23
2023-05-02T07:56:13.897Z,99312.64
2023-05-02T07:58:44.846Z,99314.28
2023-05-02T08:01:15.785Z,99314.48
2023-05-02T08:03:46.996Z,99316.41
2023-05-02T08:06:18.244Z,99314.09
2023-05-02T08:08:49.254Z,99318.85
2023-05-02T08:11:21.879Z,99320.05
2023-05-02T08:13:53.316Z,99320.39
2023-05-02T08:16:24.555Z,99319.98
2023-05-02T08:18:58.027Z,99327.30
2023-05-02T08:21:29.491Z,99329.56
2023-05-02T08:24:02.639Z,99338.23
2023-05-02T08:26:33.768Z,99343.97
2023-05-02T08:29:04.862Z,99347.20
2023-05-02T08:31:36.236Z,99351.21
2023-05-02T08:34:07.309Z,99355.86
2023-05-02T08:36:38.561Z,99360.54
2023-05-02T08:39:09.505Z,99364.64
2023-05-02T08:41:40.687Z,99365.53
2023-05-02T08:44:13.210Z,99366.35
2023-05-02T08:46:46.202Z,99367.16
2023-05-02T08:49:19.352Z,99364.95
2023-05-02T08:51:52.762Z,99364.40
2023-05-02T08:54:25.711Z,99356.45
2023-05-02T08:56:59.567Z,99356.16
2023-05-02T08:59:28.958Z,99357.86
2023-05-02T09:02:06.185Z,99357.66
2023-05-02T09:04:42.234Z,99354.27
2023-05-02T09:07:13.042Z,99356.86
2023-05-02T09:09:44.000Z,99354.35
2023-05-02T09:12:16.386Z,99358.45
2023-05-02T09:14:47.466Z,99354.73
2023-05-02T09:17:18.389Z,99361.72
2023-05-02T09:20:01.074Z,99367.80
2023-05-02T09:22:32.210Z,99371.67
2023-05-02T09:25:04.591Z,99375.55
2023-05-02T09:27:52.774Z,99376.98
2023-05-02T09:30:26.243Z,99381.50
2023-05-02T09:32:57.402Z,99386.03
2023-05-02T09:35:30.776Z,99384.65
2023-05-02T09:38:02.189Z,99388.70
2023-05-02T09:40:33.166Z,99392.29
2023-05-02T09:43:17.350Z,99389.98
2023-05-02T09:45:59.952Z,99390.89
2023-05-02T09:48:32.095Z,99396.13
2023-05-02T09:51:03.144Z,99400.18
2023-05-02T09:53:34.172Z,99400.58
2023-05-02T09:56:07.105Z,99403.92
2023-05-02T09:58:38.190Z,99406.43
2023-05-02T10:01:09.321Z,99409.64
2023-05-02T10:03:42.475Z,99414.77
2023-05-02T10:06:13.972Z,99413.16
2023-05-02T10:08:45.645Z,99412.87
2023-05-02T10:11:17.169Z,99415.03
2023-05-02T10:13:48.644Z,99419.91
2023-05-02T10:16:30.402Z,99418.77
2023-05-02T10:19:08.938Z,99421.63
2023-05-02T10:21:41.409Z,99418.45
2023-05-02T10:24:13.024Z,99420.30
2023-05-02T10:26:45.053Z,99421.10
2023-05-02T10:29:15.940Z,99422.25
2023-05-02T10:31:48.740Z,99426.93
2023-05-02T10:34:21.606Z,99420.16
2023-05-02T10:36:52.525Z,99419.92
2023-05-02T10:39:25.428Z,99419.66
2023-05-02T10:41:59.174Z,99418.77
2023-05-02T10:44:40.058Z,99421.04
2023-05-02T10:47:22.854Z,99422.79
2023-05-02T10:49:55.379Z,99427.75
2023-05-02T10:52:35.285Z,99430.45
2023-05-02T10:55:18.020Z,99432.76
2023-05-02T10:58:23.640Z,99428.83
2023-05-02T11:00:54.429Z,99430.86
2023-05-02T11:03:59.261Z,99435.01
2023-05-02T11:06:33.571Z,99433.27
2023-05-02T11:09:35.353Z,99430.95
2023-05-02T11:12:07.306Z,99433.44
2023-05-02T11:14:51.123Z,99435.73
2023-05-02T11:17:22.651Z,99436.02
2023-05-02T11:20:30.326Z,99435.96
2023-05-02T11:23:22.944Z,99434.90
2023-05-02T11:25:54.786Z,99434.28
2023-05-02T11:28:48.447Z,99433.54
2023-05-02T11:32:05.190Z,99435.29
2023-05-02T11:34:48.223Z,99438.43
2023-05-02T11:37:20.209Z,99436.91
2023-05-02T11:39:51.643Z,99436.29
2023-05-02T11:42:39.086Z,99438.88
2023-05-02T11:45:11.234Z,99434.95
2023-05-02T11:47:42.602Z,99437.03
2023-05-02T11:50:15.478Z,99440.80
2023-05-02T11:52:47.297Z,99439.01
2023-05-02T11:55:18.410Z,99441.72
2023-05-02T11:57:49.764Z,99442.93
2023-05-02T12:00:28.052Z,99445.30
2023-05-02T12:02:58.986Z,99445.46
2023-05-02T12:05:33.150Z,99444.33
2023-05-02T12:08:04.662Z,99439.02
2023-05-02T12:10:41.929Z,99439.16
2023-05-02T12:13:12.683Z,99439.85
2023-05-02T12:15:44.059Z,99440.58
2023-05-02T12:18:15.698Z,99442.33
2023-05-02T12:20:47.905Z,99444.31
2023-05-02T12:23:18.908Z,99447.04
2023-05-02T12:25:50.410Z,99444.34
2023-05-02T12:28:24.119Z,99443.21
2023-05-02T12:30:54.939Z,99444.68
2023-05-02T12:33:25.982Z,99443.79
2023-05-02T12:36:07.252Z,99446.09
2023-05-02T12:38:38.078Z,99442.58
2023-05-02T12:41:09.044Z,99441.73
2023-05-02T12:43:51.310Z,99438.25
2023-05-02T12:46:22.377Z,99439.45
2023-05-02T12:49:05.633Z,99440.56
2023-05-02T12:51:37.164Z,99439.48
2023-05-02T12:54:08.450Z,99440.84
2023-05-02T12:56:46.459Z,99439.64
2023-05-02T12:59:30.522Z,99439.68
2023-05-02T13:02:01.587Z,99431.80
2023-05-02T13:04:40.814Z,99436.58
2023-05-02T13:07:11.479Z,99433.59
2023-05-02T13:09:42.505Z,99439.05
2023-05-02T13:12:13.207Z,99443.77
2023-05-02T13:14:44.102Z,99437.80
2023-05-02T13:17:16.754Z,99444.23
2023-05-02T13:19:57.875Z,99446.45
2023-05-02T13:22:31.841Z,99442.46
2023-05-02T13:25:02.908Z,99442.06
2023-05-02T13:27:34.307Z,99442.70
2023-05-02T13:30:08.886Z,99444.73
2023-05-02T13:32:41.075Z,99440.29
2023-05-02T13:35:14.118Z,99441.17
2023-05-02T13:37:44.985Z,99446.53
2023-05-02T13:40:16.338Z,99446.01
2023-05-02T13:42:47.589Z,99451.91
2023-05-02T13:45:18.643Z,99448.92
2023-05-02T13:47:49.430Z,99449.09
2023-05-02T13:50:21.217Z,99452.30
2023-05-02T13:52:52.062Z,99451.73
2023-05-02T13:55:23.311Z,99454.55
2023-05-02T13:57:54.251Z,99451.56
2023-05-02T14:00:25.289Z,99452.45
2023-05-02T14:02:57.619Z,99456.14
2023-05-02T14:05:28.716Z,99460.47
2023-05-02T14:07:59.558Z,99458.13
2023-05-02T14:10:30.544Z,99462.95
2023-05-02T14:13:01.452Z,99460.30
2023-05-02T14:15:32.264Z,99458.21
2023-05-02T14:18:03.304Z,99459.67
2023-05-02T14:20:34.287Z,99458.88
2023-05-02T14:23:06.927Z,99457.98
2023-05-02T14:25:38.618Z,99458.21
2023-05-02T14:28:09.679Z,99460.86
2023-05-02T14:30:40.918Z,99461.65
2023-05-02T14:33:11.921Z,99471.95
2023-05-02T14:35:43.014Z,99482.17
2023-05-02T14:38:13.816Z,99479.81
2023-05-02T14:40:44.784Z,99481.86
2023-05-02T14:43:16.209Z,99496.61
2023-05-02T14:45:47.115Z,99502.58
2023-05-02T14:48:18.441Z,99502.11
2023-05-02T14:50:49.339Z,99504.02
2023-05-02T14:53:21.145Z,99507.33
2023-05-02T14:55:52.406Z,99512.31
2023-05-02T14:58:23.271Z,99513.20
2023-05-02T15:00:54.234Z,99511.95
2023-05-02T15:03:25.458Z,99518.98
2023-05-02T15:05:59.146Z,99516.88
2023-05-02T15:08:30.122Z,99520.86
2023-05-02T15:11:01.229Z,99521.47
2023-05-02T15:13:34.612Z,99520.05
2023-05-02T15:16:05.627Z,99519.17
2023-05-02T15:18:36.517Z,99524.11
2023-05-02T15:21:08.173Z,99521.55
2023-05-02T15:23:39.210Z,99519.90
2023-05-02T15:26:10.358Z,99518.48
2023-05-02T15:28:41.631Z,99516.14
2023-05-02T15:31:13.056Z,99514.11
2023-05-02T15:33:44.128Z,99516.59
2023-05-02T15:36:16.097Z,99515.52
2023-05-02T15:38:47.034Z,99512.71
2023-05-02T15:41:17.962Z,99505.44
2023-05-02T15:43:48.888Z,99503.71
2023-05-02T15:46:19.997Z,99503.11
2023-05-02T15:48:51.202Z,99502.15
2023-05-02T15:51:22.196Z,99505.99
2023-05-02T15:53:53.711Z,99512.48
2023-05-02T15:56:24.746Z,99514.34
2023-05-02T15:58:55.792Z,99511.52
2023-05-02T16:01:27.015Z,99518.61
2023-05-02T16:03:57.983Z,99514.80
2023-05-02T16:06:29.219Z,99516.98
2023-05-02T16:09:01.632Z,99515.46
2023-05-02T16:11:34.095Z,99515.75
2023-05-02T16:14:05.134Z,99515.85
2023-05-02T16:16:36.430Z,99515.29
2023-05-02T16:19:12.744Z,99519.20
2023-05-02T16:21:44.819Z,99520.83
2023-05-02T16:24:16.061Z,99520.54
2023-05-02T16:26:46.908Z,99514.89
2023-05-02T16:29:17.731Z,99522.45
2023-05-02T16:31:48.748Z,99526.73
2023-05-02T16:34:20.041Z,99536.11
2023-05-02T16:36:51.573Z,99545.15
2023-05-02T16:39:22.699Z,99542.33
2023-05-02T16:41:53.794Z,99544.02
2023-05-02T16:44:24.810Z,99546.79
2023-05-02T16:46:56.209Z,99546.89
2023-05-02T16:49:27.497Z,99547.10
2023-05-02T16:51:58.475Z,99545.43
2023-05-02T16:54:29.532Z,99548.02
2023-05-02T16:57:02.673Z,99551.09
2023-05-02T16:59:33.440Z,99549.27
2023-05-02T17:02:04.581Z,99550.81
2023-05-02T17:04:36.174Z,99551.75
2023-05-02T17:07:08.104Z,99553.13
2023-05-02T17:09:39.571Z,99552.63
2023-05-02T17:12:12.660Z,99559.16
2023-05-02T17:14:44.646Z,99561.21
2023-05-02T17:17:17.891Z,99563.80
2023-05-02T17:19:49.118Z,99567.85
2023-05-02T17:22:21.494Z,99568.31
2023-05-02T17:24:54.263Z,99570.95
2023-05-02T17:27:25.594Z,99567.84
2023-05-02T17:29:57.680Z,99573.58
2023-05-02T17:32:29.013Z,99573.54
2023-05-02T17:35:00.189Z,99576.08
2023-05-02T17:37:31.332Z,99581.38
2023-05-02T17:40:04.626Z,99583.02
2023-05-02T17:42:36.100Z,99586.45
2023-05-02T17:45:08.943Z,99587.34
2023-05-02T17:47:40.088Z,99586.08
2023-05-02T17:50:14.293Z,99594.17
2023-05-02T17:52:45.268Z,99595.72
2023-05-02T17:55:18.964Z,99599.30
2023-05-02T17:57:48.935Z,99603.52
2023-05-02T18:00:21.545Z,99605.86
2023-05-02T18:02:52.532Z,99607.16
2023-05-02T18:05:23.769Z,99610.24
2023-05-02T18:07:55.785Z,99612.90
2023-05-02T18:10:27.393Z,99622.44
2023-05-02T18:12:58.371Z,99625.52
2023-05-02T18:15:29.429Z,99624.31
2023-05-02T18:18:01.553Z,99625.66
2023-05-02T18:20:32.837Z,99629.59
2023-05-02T18:23:06.255Z,99627.71
2023-05-02T18:25:38.553Z,99625.92
2023-05-02T18:28:09.846Z,99635.31
2023-05-02T18:30:41.836Z,99632.83
2023-05-02T18:33:13.389Z,99643.02
2023-05-02T18:35:49.798Z,99644.92
2023-05-02T18:38:21.144Z,99650.83
2023-05-02T18:40:54.250Z,99653.19
2023-05-02T18:43:25.748Z,99651.45
2023-05-02T18:45:57.093Z,99654.02
2023-05-02T18:48:28.357Z,99659.92
2023-05-02T18:51:00.162Z,99659.98
2023-05-02T18:53:31.446Z,99662.98
2023-05-02T18:56:02.431Z,99663.43
2023-05-02T18:58:34.115Z,99664.46
2023-05-02T19:01:15.423Z,99665.35
2023-05-02T19:03:47.245Z,99665.11
2023-05-02T19:06:19.438Z,99666.86
2023-05-02T19:08:51.281Z,99667.17
2023-05-02T19:11:22.923Z,99669.06
2023-05-02T19:13:56.914Z,99673.48
2023-05-02T19:16:29.268Z,99670.80
2023-05-02T19:19:00.701Z,99681.48
2023-05-02T19:21:33.197Z,99684.96
2023-05-02T19:24:04.709Z,99691.64
2023-05-02T19:26:36.696Z,99688.15
2023-05-02T19:29:07.545Z,99693.11
2023-05-02T19:31:39.636Z,99698.80
2023-05-02T19:34:10.968Z,99698.34
2023-05-02T19:36:42.027Z,99697.64
2023-05-02T19:39:13.371Z,99697.23
2023-05-02T19:41:44.477Z,99698.02
2023-05-02T19:44:16.071Z,99703.48
2023-05-02T19:46:46.969Z,99710.23
2023-05-02T19:49:18.242Z,99706.38
2023-05-02T19:51:49.555Z,99710.94
2023-05-02T19:54:20.397Z,99716.51
2023-05-02T19:56:51.355Z,99719.10
2023-05-02T19:59:22.251Z,99716.80
2023-05-02T20:01:53.184Z,99721.53
2023-05-02T20:04:25.220Z,99727.61
2023-05-02T20:06:56.283Z,99735.38
2023-05-02T20:09:28.160Z,99732.52
2023-05-02T20:11:58.936Z,99735.50
2023-05-02T20:14:29.942Z,99736.36
2023-05-02T20:17:01.990Z,99740.92
2023-05-02T20:19:33.413Z,99742.91
2023-05-02T20:22:04.468Z,99747.77
2023-05-02T20:24:35.514Z,99749.34
2023-05-02T20:27:06.893Z,99745.39
2023-05-02T20:29:38.064Z,99747.59
2023-05-02T20:32:09.339Z,99747.25
2023-05-02T20:34:40.512Z,99747.59
2023-05-02T20:37:11.910Z,99744.98
2023-05-02T20:39:42.745Z,99745.59
2023-05-02T20:42:13.890Z,99743.11
2023-05-02T20:44:45.962Z,99744.01
2023-05-02T20:47:17.136Z,99744.74
2023-05-02T20:49:47.987Z,99752.64
2023-05-02T20:52:19.611Z,99749.30
2023-05-02T20:54:54.056Z,99750.89
2023-05-02T20:57:25.545Z,99751.85
2023-05-02T20:59:59.515Z,99751.96
2023-05-02T21:02:31.210Z,99752.13
2023-05-02T21:05:01.969Z,99754.70
2023-05-02T21:07:32.753Z,99757.02
2023-05-02T21:10:04.834Z,99756.18
2023-05-02T21:12:35.913Z,99757.77
2023-05-02T21:15:08.518Z,99757.55
2023-05-02T21:17:41.941Z,99761.11
2023-05-02T21:20:14.214Z,99758.71
2023-05-02T21:22:44.932Z,99758.94
2023-05-02T21:25:16.081Z,99765.41
2023-05-02T21:27:46.951Z,99764.49
2023-05-02T21:30:18.629Z,99763.14
2023-05-02T21:32:49.548Z,99765.91
2023-05-02T21:35:20.688Z,99769.08
2023-05-02T21:37:51.450Z,99772.32
2023-05-02T21:40:22.276Z,99776.05
2023-05-02T21:42:53.028Z,99774.61
2023-05-02T21:45:23.846Z,99774.95
2023-05-02T21:47:54.637Z,99775.88
2023-05-02T21:50:25.765Z,99784.23
2023-05-02T21:52:56.546Z,99781.41
2023-05-02T21:55:27.616Z,99787.48
2023-05-02T21:57:58.660Z,99790.14
2023-05-02T22:00:29.875Z,99798.87
2023-05-02T22:03:01.742Z,99802.88
2023-05-02T22:05:32.956Z,99804.84
2023-05-02T22:08:03.958Z,99812.34
2023-05-02T22:10:35.701Z,99809.04
2023-05-02T22:13:07.288Z,99816.41
2023-05-02T22:15:38.336Z,99815.52
2023-05-02T22:18:10.587Z,99814.69
2023-05-02T22:20:42.125Z,99814.34
2023-05-02T22:23:13.853Z,99816.73
2023-05-02T22:25:46.357Z,99814.48
2023-05-02T22:28:17.081Z,99814.63
2023-05-02T22:30:47.837Z,99816.85
2023-05-02T22:33:18.714Z,99821.59
2023-05-02T22:35:49.580Z,99818.23
2023-05-02T22:38:22.103Z,99814.87
2023-05-02T22:40:52.885Z,99819.33
2023-05-02T22:43:23.617Z,99823.52
2023-05-02T22:45:56.048Z,99822.23
2023-05-02T22:48:27.002Z,99821.77
2023-05-02T22:50:58.094Z,99824.67
2023-05-02T22:53:30.281Z,99827.61
2023-05-02T22:56:00.987Z,99822.95
2023-05-02T22:58:31.732Z,99824.60
2023-05-02T23:01:02.673Z,99828.76
2023-05-02T23:03:33.575Z,99830.74
2023-05-02T23:06:04.573Z,99834.48
2023-05-02T23:08:35.268Z,99836.91
2023-05-02T23:11:06.002Z,99836.68
2023-05-02T23:13:36.868Z,99837.52
2023-05-02T23:16:10.546Z,99838.35
2023-05-02T23:18:41.402Z,99838.36
2023-05-02T23:21:18.061Z,99841.28
2023-05-02T23:23:48.770Z,99837.59
2023-05-02T23:26:19.563Z,99842.27
2023-05-02T23:28:50.191Z,99844.79
2023-05-02T23:31:20.943Z,99844.18
2023-05-02T23:33:51.689Z,99849.48
2023-05-02T23:36:22.526Z,99844.36
2023-05-02T23:38:53.820Z,99850.61
2023-05-02T23:41:26.368Z,99849.32
2023-05-02T23:43:57.092Z,99853.77
2023-05-02T23:46:28.322Z,99847.23
2023-05-02T23:48:59.074Z,99842.69
2023-05-02T23:51:32.114Z,99841.43
2023-05-02T23:54:03.006Z,99840.53
2023-05-02T23:56:33.752Z,99837.39
2023-05-02T23:59:04.472Z,99839.40
